Time;durP1;ratioP1;P1;durP2;ratioP2;P2;SDS_P1;SDS_P2;PMS_P1;PMS_P2;Temp;Humidity;BMP_temperature;BMP_pressure;BME280_temperature;BME280_humidity;BME280_pressure;Samples;Min_cycle;Max_cycle;Signal;HPM_P1;HPM_P2
2022/08/05 00:01:19;;;;;;;10.73;4.50;;;20.40;72.50;;;;;;4997908;28;20970;-76
2022/08/05 00:03:45;;;;;;;11.40;4.65;;;20.30;75.90;;;;;;4992778;28;20395;-77
2022/08/05 00:06:10;;;;;;;8.13;5.03;;;20.30;76.00;;;;;;4994649;28;20464;-77
2022/08/05 00:08:36;;;;;;;10.20;4.90;;;20.30;75.80;;;;;;4993448;28;20410;-78
2022/08/05 00:11:05;;;;;;;10.30;4.90;;;20.30;74.90;;;;;;4992783;28;20390;-77
2022/08/05 00:13:33;;;;;;;11.75;5.00;;;20.20;77.80;;;;;;4995431;28;20382;-77
2022/08/05 00:15:58;;;;;;;9.27;4.45;;;20.10;79.50;;;;;;4994558;28;20452;-77
2022/08/05 00:18:24;;;;;;;8.60;4.70;;;20.00;81.40;;;;;;4993867;28;20883;-78
2022/08/05 00:20:50;;;;;;;7.70;4.70;;;20.10;84.80;;;;;;4998210;28;20891;-78
2022/08/05 00:23:16;;;;;;;11.45;5.20;;;20.20;83.40;;;;;;4998760;28;20401;-78
2022/08/05 00:25:41;;;;;;;8.00;5.07;;;20.10;83.40;;;;;;4994168;28;20907;-78
2022/08/05 00:28:07;;;;;;;11.00;5.43;;;20.00;86.60;;;;;;4993644;28;20433;-77
2022/08/05 00:30:33;;;;;;;8.63;4.97;;;20.00;87.20;;;;;;4992188;28;20390;-77
2022/08/05 00:32:58;;;;;;;11.43;4.80;;;19.90;88.10;;;;;;4994129;28;20398;-77
2022/08/05 00:35:24;;;;;;;7.35;5.15;;;19.90;89.00;;;;;;4991971;28;20477;-77
2022/08/05 00:37:49;;;;;;;7.40;5.18;;;19.90;89.80;;;;;;4992474;28;20879;-78
2022/08/05 00:40:15;;;;;;;10.00;5.50;;;19.80;92.00;;;;;;4992693;28;20394;-76
2022/08/05 00:42:41;;;;;;;14.88;5.75;;;19.70;93.50;;;;;;4994528;28;20394;-78
2022/08/05 00:45:08;;;;;;;11.47;5.67;;;19.60;93.50;;;;;;4994244;28;20922;-78
2022/08/05 00:47:34;;;;;;;12.60;5.78;;;19.60;94.40;;;;;;4995094;28;20395;-77
2022/08/05 00:49:59;;;;;;;9.80;6.38;;;19.60;94.40;;;;;;4996420;28;20410;-77
2022/08/05 00:52:25;;;;;;;8.95;6.07;;;19.60;93.50;;;;;;4994596;28;20429;-77
2022/08/05 00:54:50;;;;;;;8.63;5.57;;;19.60;94.00;;;;;;4994702;28;20380;-77
2022/08/05 00:57:16;;;;;;;9.30;5.80;;;19.60;94.60;;;;;;4994885;28;20390;-78
2022/08/05 00:59:42;;;;;;;11.05;5.70;;;19.50;95.40;;;;;;4992974;28;20428;-77
2022/08/05 01:02:07;;;;;;;14.18;6.65;;;19.50;97.50;;;;;;4992104;28;20434;-77
2022/08/05 01:04:33;;;;;;;15.80;7.20;;;19.50;97.20;;;;;;4993002;28;20386;-77
2022/08/05 01:06:59;;;;;;;11.67;6.57;;;19.50;98.90;;;;;;4993598;28;20393;-77
2022/08/05 01:09:24;;;;;;;13.25;7.03;;;19.50;99.40;;;;;;4993056;28;20493;-77
2022/08/05 01:11:53;;;;;;;11.55;7.60;;;19.50;98.20;;;;;;4992592;28;20783;-77
2022/08/05 01:15:08;;;;;;;16.87;7.70;;;19.60;98.70;;;;;;4994177;28;20378;-77
2022/08/05 01:17:49;;;;;;;12.77;7.43;;;19.60;99.10;;;;;;4973207;28;20394;-77
2022/08/05 01:20:45;;;;;;;13.27;8.88;;;19.50;99.90;;;;;;5006009;28;20753;-77
2022/08/05 01:23:22;;;;;;;15.60;9.80;;;19.60;99.90;;;;;;5006766;28;20906;-77
2022/08/05 01:26:20;;;;;;;20.83;8.90;;;19.50;99.90;;;;;;5000408;28;20398;-77
2022/08/05 01:28:56;;;;;;;15.80;9.05;;;19.60;99.90;;;;;;5000200;28;20410;-76
2022/08/05 01:32:01;;;;;;;20.10;10.00;;;19.60;99.90;;;;;;5000137;28;20387;-77
2022/08/05 01:34:36;;;;;;;15.13;9.32;;;19.60;99.90;;;;;;4956222;29;20394;-78
2022/08/05 01:37:11;;;;;;;17.40;9.60;;;19.60;99.90;;;;;;4996420;28;20421;-78
2022/08/05 01:39:38;;;;;;;18.05;9.80;;;19.60;99.90;;;;;;5009946;28;20405;-78
2022/08/05 01:42:08;;;;;;;22.05;10.85;;;19.60;99.90;;;;;;4998595;28;20473;-77
2022/08/05 01:44:34;;;;;;;13.88;9.70;;;19.60;99.90;;;;;;5003752;28;20409;-77
2022/08/05 01:47:01;;;;;;;14.37;9.90;;;19.80;99.90;;;;;;4998460;28;20482;-77
2022/08/05 01:49:28;;;;;;;17.98;9.73;;;19.70;99.90;;;;;;4997528;28;20493;-77
2022/08/05 01:51:58;;;;;;;14.35;9.60;;;19.80;99.90;;;;;;4998072;28;20474;-78
2022/08/05 01:54:32;;;;;;;13.50;8.80;;;19.70;99.90;;;;;;4998945;28;20379;-76
2022/08/05 01:56:59;;;;;;;15.77;9.18;;;19.80;99.90;;;;;;4999078;28;20386;-76
2022/08/05 01:59:26;;;;;;;13.27;8.30;;;19.80;98.60;;;;;;4997532;28;20445;-77
2022/08/05 02:01:55;;;;;;;12.90;8.52;;;19.80;99.50;;;;;;5043425;23;20900;-78
2022/08/05 02:04:22;;;;;;;17.50;10.00;;;19.80;99.90;;;;;;5053345;28;20377;-78
2022/08/05 02:06:48;;;;;;;13.65;9.57;;;19.90;99.90;;;;;;5052226;28;20874;-80
2022/08/05 02:09:14;;;;;;;15.55;9.85;;;19.90;99.90;;;;;;5053184;28;20424;-77
2022/08/05 02:11:57;;;;;;;14.17;9.47;;;19.80;99.90;;;;;;5053046;28;20711;-78
2022/08/05 02:14:46;;;;;;;14.90;10.00;;;19.70;99.90;;;;;;5052833;28;20401;-78
2022/08/05 02:17:22;;;;;;;14.68;9.30;;;19.70;99.90;;;;;;5051589;28;20461;-77
2022/08/05 02:19:54;;;;;;;16.95;10.13;;;19.70;99.90;;;;;;5053053;28;20382;-76
2022/08/05 02:22:28;;;;;;;18.95;11.90;;;19.60;99.90;;;;;;5052798;28;20388;-78
2022/08/05 02:25:04;;;;;;;19.85;11.63;;;19.40;99.90;;;;;;5052923;28;20873;-77
2022/08/05 02:27:36;;;;;;;19.70;13.20;;;19.20;99.90;;;;;;5055541;28;20413;-76
2022/08/05 02:30:02;;;;;;;26.05;16.35;;;19.20;99.90;;;;;;5059756;28;20425;-78
2022/08/05 02:32:30;;;;;;;24.73;17.03;;;19.10;99.90;;;;;;5061710;28;20464;-76
2022/08/05 02:34:59;;;;;;;26.70;17.80;;;19.10;99.90;;;;;;5062552;28;20482;-77
2022/08/05 02:37:26;;;;;;;32.42;19.65;;;19.10;99.90;;;;;;5060643;28;20386;-78
2022/08/05 02:39:52;;;;;;;35.45;19.83;;;19.00;99.90;;;;;;5061386;28;20432;-79
2022/08/05 02:42:19;;;;;;;30.33;19.40;;;19.00;99.90;;;;;;5060037;28;20445;-76
2022/08/05 02:44:45;;;;;;;32.83;20.15;;;19.00;99.90;;;;;;5055862;28;20428;-79
2022/08/05 02:47:13;;;;;;;33.50;21.10;;;18.90;99.90;;;;;;5051341;28;20397;-78
2022/08/05 02:49:41;;;;;;;30.30;21.40;;;19.00;99.90;;;;;;5053202;28;20743;-79
2022/08/05 02:52:10;;;;;;;31.83;22.27;;;19.00;99.90;;;;;;5050620;28;20894;-77
2022/08/05 02:54:38;;;;;;;40.28;24.80;;;19.10;99.90;;;;;;5052053;28;20381;-78
2022/08/05 02:57:14;;;;;;;27.90;20.48;;;19.10;99.90;;;;;;5052538;28;20385;-78
2022/08/05 02:59:45;;;;;;;37.00;22.30;;;19.00;99.90;;;;;;5052721;28;20381;-80
2022/08/05 03:02:12;;;;;;;33.87;22.00;;;19.00;99.90;;;;;;5051554;28;20398;-78
2022/08/05 03:04:39;;;;;;;28.77;21.20;;;19.00;99.90;;;;;;5052241;28;20389;-77
2022/08/05 03:07:05;;;;;;;37.90;24.88;;;19.10;99.90;;;;;;5052163;28;20439;-77
2022/08/05 03:09:31;;;;;;;35.13;23.60;;;19.20;99.90;;;;;;5053954;28;20420;-79
2022/08/05 03:11:57;;;;;;;37.33;25.55;;;19.20;99.90;;;;;;5051591;28;20761;-76
2022/08/05 03:14:22;;;;;;;23.77;17.30;;;19.30;99.90;;;;;;5057039;28;20382;-78
2022/08/05 03:16:48;;;;;;;23.47;15.57;;;19.30;99.90;;;;;;5060530;28;20848;-79
2022/08/05 03:19:14;;;;;;;25.70;15.10;;;19.30;99.90;;;;;;5060539;28;20421;-79
2022/08/05 03:21:39;;;;;;;20.10;11.63;;;19.30;99.90;;;;;;5059288;28;20389;-78
2022/08/05 03:24:06;;;;;;;19.63;12.30;;;19.20;99.90;;;;;;5063437;28;20386;-78
2022/08/05 03:26:32;;;;;;;18.67;12.60;;;19.20;99.90;;;;;;5064131;28;20413;-79
2022/08/05 03:28:58;;;;;;;23.87;13.67;;;19.10;99.90;;;;;;5062277;28;20421;-79
2022/08/05 03:31:25;;;;;;;24.27;14.10;;;18.90;99.90;;;;;;5061881;28;20801;-78
2022/08/05 03:33:51;;;;;;;20.95;15.27;;;18.90;99.90;;;;;;5060594;28;20881;-77
2022/08/05 03:36:17;;;;;;;20.80;15.77;;;18.80;99.90;;;;;;5059591;28;20389;-77
2022/08/05 03:38:42;;;;;;;19.40;15.23;;;18.80;99.90;;;;;;5057380;28;20385;-79
2022/08/05 03:41:08;;;;;;;23.42;17.45;;;18.80;99.90;;;;;;5056721;28;20432;-78
2022/08/05 03:43:34;;;;;;;25.63;15.85;;;18.70;99.90;;;;;;5056717;28;20420;-78
2022/08/05 03:46:00;;;;;;;25.52;15.43;;;18.60;99.90;;;;;;5052010;28;20815;-78
2022/08/05 03:48:27;;;;;;;23.45;15.20;;;18.70;99.90;;;;;;5054253;28;20729;-78
2022/08/05 03:51:08;;;;;;;22.67;14.80;;;18.80;99.90;;;;;;5053674;28;20757;-78
2022/08/05 03:53:42;;;;;;;20.05;13.68;;;18.90;99.90;;;;;;5055046;28;20385;-77
2022/08/05 03:56:23;;;;;;;19.15;13.60;;;19.20;99.90;;;;;;5054584;28;20390;-78
2022/08/05 03:58:52;;;;;;;20.20;14.43;;;19.10;99.90;;;;;;5055166;28;20388;-80
2022/08/05 04:01:19;;;;;;;21.15;13.65;;;19.10;99.90;;;;;;5054565;28;20405;-78
2022/08/05 04:03:47;;;;;;;20.15;12.88;;;19.00;99.90;;;;;;5053957;28;20857;-77
2022/08/05 04:06:14;;;;;;;20.95;14.05;;;18.90;99.90;;;;;;5061833;28;20398;-77
2022/08/05 04:08:41;;;;;;;16.63;13.25;;;19.20;99.90;;;;;;5058828;28;20451;-77
2022/08/05 04:11:07;;;;;;;20.30;13.40;;;19.30;99.90;;;;;;5056424;28;20453;-77
2022/08/05 04:13:32;;;;;;;21.00;13.70;;;19.20;99.90;;;;;;5056315;28;20421;-77
2022/08/05 04:15:58;;;;;;;24.55;13.40;;;19.20;99.90;;;;;;5038762;28;20394;-77
2022/08/05 04:18:24;;;;;;;19.67;13.60;;;19.10;99.90;;;;;;5052321;28;20699;-77
2022/08/05 04:20:54;;;;;;;20.25;13.45;;;19.20;99.90;;;;;;5053067;28;20461;-79
2022/08/05 04:23:23;;;;;;;19.70;13.15;;;19.10;99.90;;;;;;5049371;28;20385;-77
2022/08/05 04:25:48;;;;;;;19.55;14.07;;;19.00;99.90;;;;;;5050918;28;20388;-76
2022/08/05 04:28:14;;;;;;;23.80;14.60;;;18.90;99.90;;;;;;5049230;28;20389;-78
2022/08/05 04:30:39;;;;;;;21.93;14.97;;;18.90;99.90;;;;;;5050924;28;20491;-79
2022/08/05 04:33:05;;;;;;;24.80;16.10;;;18.90;99.90;;;;;;5050583;28;20468;-76
2022/08/05 04:35:30;;;;;;;29.13;13.47;;;18.90;99.90;;;;;;5050464;28;20377;-77
2022/08/05 04:37:56;;;;;;;18.43;13.60;;;18.90;99.90;;;;;;5050178;28;20388;-77
2022/08/05 04:40:21;;;;;;;23.35;13.80;;;18.90;99.90;;;;;;5049046;28;20393;-76
2022/08/05 04:42:47;;;;;;;19.77;15.05;;;18.90;99.90;;;;;;5050291;28;20705;-77
2022/08/05 04:45:13;;;;;;;24.97;14.90;;;18.90;99.90;;;;;;5050519;28;20443;-77
2022/08/05 04:47:38;;;;;;;24.07;13.80;;;18.90;99.90;;;;;;5050651;28;20512;-78
2022/08/05 04:50:04;;;;;;;25.98;13.70;;;18.90;99.90;;;;;;5050619;28;20487;-77
2022/08/05 04:52:29;;;;;;;29.65;16.85;;;19.00;99.90;;;;;;5050357;28;20378;-77
2022/08/05 04:54:55;;;;;;;25.10;16.70;;;19.10;99.90;;;;;;5053461;28;20446;-77
2022/08/05 04:57:21;;;;;;;28.87;20.10;;;19.10;99.90;;;;;;5053126;28;20405;-78
2022/08/05 04:59:46;;;;;;;26.75;18.70;;;19.10;99.90;;;;;;5054386;28;20396;-77
2022/08/05 05:02:12;;;;;;;33.53;21.08;;;19.10;99.90;;;;;;5054209;28;20397;-77
2022/08/05 05:04:37;;;;;;;28.57;18.30;;;19.10;99.90;;;;;;5054192;28;20389;-77
2022/08/05 05:07:03;;;;;;;35.67;21.00;;;19.10;99.90;;;;;;5054011;28;20393;-76
2022/08/05 05:09:29;;;;;;;33.13;19.67;;;19.10;99.90;;;;;;5052819;28;20901;-78
2022/08/05 05:11:54;;;;;;;29.38;19.63;;;19.10;99.90;;;;;;5055406;28;20390;-77
2022/08/05 05:14:20;;;;;;;28.23;18.40;;;19.20;99.90;;;;;;5055854;28;20388;-78
2022/08/05 05:16:45;;;;;;;30.25;20.30;;;19.10;99.90;;;;;;5058156;28;20392;-78
2022/08/05 05:19:11;;;;;;;28.02;20.02;;;19.10;99.90;;;;;;5057906;28;20940;-77
2022/08/05 05:21:36;;;;;;;29.00;19.67;;;19.20;99.90;;;;;;5054288;28;20393;-78
2022/08/05 05:24:02;;;;;;;36.37;21.17;;;19.30;99.90;;;;;;5055196;28;20393;-77
2022/08/05 05:26:28;;;;;;;24.52;18.58;;;19.30;99.90;;;;;;5056689;28;20400;-77
2022/08/05 05:28:53;;;;;;;25.63;18.48;;;19.30;99.90;;;;;;5054383;28;20493;-78
2022/08/05 05:31:19;;;;;;;27.97;18.40;;;19.30;99.90;;;;;;5053056;28;20435;-78
2022/08/05 05:33:44;;;;;;;24.93;17.60;;;19.30;99.90;;;;;;5053671;28;20746;-76
2022/08/05 05:36:10;;;;;;;26.40;18.35;;;19.40;99.90;;;;;;5053228;28;20734;-77
2022/08/05 05:38:35;;;;;;;31.00;19.97;;;19.50;99.90;;;;;;5053538;28;20793;-78
2022/08/05 05:41:01;;;;;;;31.13;20.67;;;19.40;99.90;;;;;;5053144;28;20741;-79
2022/08/05 05:43:27;;;;;;;36.13;21.83;;;19.40;99.90;;;;;;5053419;28;20424;-77
2022/08/05 05:45:52;;;;;;;32.43;22.40;;;19.30;99.90;;;;;;5053416;28;20381;-77
2022/08/05 05:48:18;;;;;;;33.90;21.57;;;19.40;99.90;;;;;;5053031;28;20447;-77
2022/08/05 05:50:43;;;;;;;31.95;21.10;;;19.30;99.90;;;;;;5053114;28;20373;-78
2022/08/05 05:53:10;;;;;;;33.37;21.10;;;19.30;99.90;;;;;;5053322;28;20384;-76
2022/08/05 05:55:35;;;;;;;28.55;20.00;;;19.40;99.90;;;;;;5053230;28;20377;-78
2022/08/05 05:58:01;;;;;;;26.83;18.83;;;19.30;99.90;;;;;;5053179;28;20843;-78
2022/08/05 06:00:27;;;;;;;27.17;19.50;;;19.30;99.90;;;;;;5053175;28;20393;-78
2022/08/05 06:02:52;;;;;;;31.40;20.80;;;19.20;99.90;;;;;;5051487;28;20468;-78
2022/08/05 06:05:19;;;;;;;32.87;22.80;;;19.10;99.90;;;;;;5052320;28;20397;-78
2022/08/05 06:07:45;;;;;;;42.05;24.80;;;19.00;99.90;;;;;;5052973;28;20393;-77
2022/08/05 06:10:11;;;;;;;39.42;27.13;;;18.90;99.90;;;;;;5052703;28;20450;-78
2022/08/05 06:12:37;;;;;;;43.97;28.42;;;18.90;99.90;;;;;;5052737;28;20389;-77
2022/08/05 06:15:04;;;;;;;47.50;29.83;;;18.90;99.90;;;;;;5053026;28;20472;-76
2022/08/05 06:17:30;;;;;;;47.97;31.60;;;18.90;99.90;;;;;;5053084;28;20385;-78
2022/08/05 06:19:56;;;;;;;40.53;28.52;;;18.90;99.90;;;;;;5054697;28;20389;-78
2022/08/05 06:22:23;;;;;;;46.55;29.42;;;19.00;99.90;;;;;;5052846;28;20893;-78
2022/08/05 06:24:49;;;;;;;44.23;28.63;;;19.10;99.90;;;;;;5054097;28;20865;-77
2022/08/05 06:27:15;;;;;;;43.97;29.50;;;19.00;99.90;;;;;;5054038;28;20476;-78
2022/08/05 06:29:40;;;;;;;42.17;28.10;;;19.10;99.90;;;;;;5053351;28;20413;-78
2022/08/05 06:32:07;;;;;;;47.30;29.48;;;19.10;99.90;;;;;;5054398;28;20382;-76
2022/08/05 06:34:32;;;;;;;43.83;29.97;;;19.00;99.90;;;;;;5055578;28;20883;-79
2022/08/05 06:36:58;;;;;;;65.53;35.57;;;19.00;99.90;;;;;;5056306;28;20373;-76
2022/08/05 06:39:24;;;;;;;73.28;39.65;;;18.90;99.90;;;;;;5055489;28;20417;-78
2022/08/05 06:41:50;;;;;;;89.47;44.97;;;18.80;99.90;;;;;;5054314;28;20451;-78
2022/08/05 06:44:15;;;;;;;88.20;49.40;;;18.70;99.90;;;;;;5053608;28;20438;-78
2022/08/05 06:46:41;;;;;;;85.63;49.63;;;18.70;99.90;;;;;;5051070;28;20389;-78
2022/08/05 06:49:07;;;;;;;84.00;48.95;;;18.60;99.90;;;;;;5053765;28;20466;-79
2022/08/05 06:51:32;;;;;;;92.95;50.50;;;18.50;99.90;;;;;;5054382;28;20780;-78
2022/08/05 06:53:59;;;;;;;83.80;51.63;;;18.50;99.90;;;;;;5057835;28;20382;-78
2022/08/05 06:56:26;;;;;;;77.60;49.40;;;18.50;99.90;;;;;;5054869;28;20389;-79
2022/08/05 06:58:52;;;;;;;91.47;50.22;;;18.60;99.90;;;;;;5054168;28;20388;-78
2022/08/05 07:01:18;;;;;;;90.40;49.70;;;18.70;99.90;;;;;;5052968;28;20397;-78
2022/08/05 07:03:43;;;;;;;98.10;56.73;;;18.70;99.90;;;;;;5053874;28;20381;-78
2022/08/05 07:06:09;;;;;;;102.17;55.70;;;18.60;99.90;;;;;;5052104;28;20429;-78
2022/08/05 07:08:34;;;;;;;91.10;50.33;;;18.50;99.90;;;;;;5051990;28;20401;-76
2022/08/05 07:11:00;;;;;;;76.15;43.45;;;18.60;99.90;;;;;;5051641;28;20439;-76
2022/08/05 07:18:54;;;;;;;44.60;26.65;;;18.80;99.90;;;;;;5050981;28;20485;-78
2022/08/05 07:21:19;;;;;;;33.90;22.83;;;18.80;99.90;;;;;;5051390;28;20476;-77
2022/08/05 07:23:45;;;;;;;37.43;23.03;;;18.70;99.60;;;;;;5051411;28;20678;-76
2022/08/05 07:26:10;;;;;;;31.77;21.50;;;18.60;99.90;;;;;;5051290;28;20385;-77
2022/08/05 07:28:36;;;;;;;30.65;21.50;;;18.40;99.90;;;;;;5051214;28;20398;-76
2022/08/05 07:31:02;;;;;;;33.08;21.65;;;18.40;99.90;;;;;;5052103;28;20850;-77
2022/08/05 07:33:27;;;;;;;33.73;20.27;;;18.40;99.90;;;;;;5052459;28;20885;-78
2022/08/05 07:35:53;;;;;;;34.70;19.80;;;18.40;99.90;;;;;;5052253;28;20381;-77
2022/08/05 07:38:18;;;;;;;29.60;18.58;;;18.40;99.90;;;;;;5055141;28;20876;-77
2022/08/05 07:40:45;;;;;;;25.67;16.15;;;18.50;99.90;;;;;;5054960;28;20390;-79
2022/08/05 07:43:12;;;;;;;26.98;16.48;;;18.50;99.90;;;;;;5054395;28;20386;-78
2022/08/05 07:45:39;;;;;;;28.02;15.15;;;18.60;98.60;;;;;;5053911;28;20409;-78
2022/08/05 07:48:04;;;;;;;24.67;15.27;;;18.60;96.20;;;;;;5051767;28;20785;-78
2022/08/05 07:50:30;;;;;;;22.67;12.90;;;18.70;95.60;;;;;;5052011;28;20436;-77
2022/08/05 07:52:55;;;;;;;24.20;13.30;;;18.70;91.60;;;;;;5051986;28;20428;-76
2022/08/05 07:55:21;;;;;;;19.37;12.97;;;18.50;94.70;;;;;;5052434;28;20389;-78
2022/08/05 07:57:46;;;;;;;22.53;13.03;;;18.40;97.90;;;;;;5049830;28;20397;-77
2022/08/05 08:00:13;;;;;;;24.25;12.45;;;18.20;97.30;;;;;;5051235;28;20432;-77
2022/08/05 08:02:39;;;;;;;23.80;12.55;;;18.30;99.40;;;;;;5079104;22;20429;-77
2022/08/05 08:05:05;;;;;;;20.55;11.40;;;18.30;98.60;;;;;;5067057;28;20431;-78
2022/08/05 08:07:32;;;;;;;19.45;10.27;;;18.30;98.50;;;;;;5060532;28;20382;-77
2022/08/05 08:09:57;;;;;;;17.38;10.25;;;18.30;94.80;;;;;;5050159;28;20401;-76
2022/08/05 08:12:23;;;;;;;20.27;10.30;;;18.40;93.80;;;;;;5051796;28;20753;-76
2022/08/05 08:14:49;;;;;;;20.40;10.43;;;18.30;90.90;;;;;;5050493;28;20469;-76
2022/08/05 08:17:14;;;;;;;20.13;11.40;;;18.30;89.20;;;;;;5052241;28;20973;-76
2022/08/05 08:19:40;;;;;;;27.58;15.25;;;18.40;90.90;;;;;;5051726;28;20874;-77
2022/08/05 08:22:07;;;;;;;19.13;10.70;;;18.50;88.50;;;;;;5051432;28;20397;-78
2022/08/05 08:24:33;;;;;;;17.38;10.27;;;18.50;87.50;;;;;;5039303;28;20402;-76
2022/08/05 08:26:59;;;;;;;18.48;10.35;;;18.60;88.30;;;;;;5039205;28;20407;-76
2022/08/05 08:29:25;;;;;;;21.30;10.37;;;18.60;87.20;;;;;;5038765;28;20434;-77
2022/08/05 08:31:51;;;;;;;17.15;9.68;;;18.60;89.30;;;;;;5039910;28;20437;-75
2022/08/05 08:34:18;;;;;;;22.43;12.93;;;18.50;82.40;;;;;;5038924;28;20395;-77
2022/08/05 08:36:43;;;;;;;20.20;9.85;;;18.50;80.30;;;;;;5043589;28;20505;-77
2022/08/05 08:39:09;;;;;;;30.37;17.00;;;18.50;82.70;;;;;;5055067;28;20412;-77
2022/08/05 08:41:39;;;;;;;15.57;7.30;;;18.60;83.50;;;;;;5055501;28;20400;-77
2022/08/05 08:44:07;;;;;;;17.23;7.50;;;18.80;75.80;;;;;;5054972;28;20400;-76
2022/08/05 08:46:33;;;;;;;12.05;6.78;;;18.90;74.00;;;;;;5055755;28;20857;-77
2022/08/05 08:49:01;;;;;;;12.60;7.60;;;19.00;75.80;;;;;;5055919;28;20413;-76
2022/08/05 08:51:30;;;;;;;16.15;8.10;;;18.90;76.10;;;;;;5054799;28;20377;-77
2022/08/05 08:53:56;;;;;;;11.45;7.75;;;18.80;77.70;;;;;;5065118;28;20465;-76
2022/08/05 08:56:22;;;;;;;15.45;8.40;;;18.90;79.00;;;;;;5062114;28;20523;-77
2022/08/05 08:58:48;;;;;;;16.20;9.10;;;19.20;75.10;;;;;;5058502;28;20806;-78
2022/08/05 09:01:15;;;;;;;13.03;8.10;;;19.40;71.30;;;;;;5061501;28;20397;-76
2022/08/05 09:03:40;;;;;;;21.38;8.63;;;19.60;67.40;;;;;;5054034;28;20472;-76
2022/08/05 09:06:06;;;;;;;16.75;7.80;;;19.80;69.60;;;;;;5054448;28;20413;-74
2022/08/05 09:08:32;;;;;;;20.30;8.20;;;19.90;64.70;;;;;;5054775;28;20784;-76
2022/08/05 09:10:58;;;;;;;14.20;7.28;;;19.80;65.80;;;;;;5054495;28;20429;-75
2022/08/05 09:13:23;;;;;;;12.80;7.30;;;19.60;69.70;;;;;;5055021;28;20373;-76
2022/08/05 09:15:50;;;;;;;13.07;6.77;;;19.60;67.80;;;;;;5076930;28;20461;-77
2022/08/05 09:18:16;;;;;;;13.50;7.32;;;19.50;68.60;;;;;;5079018;28;20378;-78
2022/08/05 09:20:44;;;;;;;19.70;9.95;;;19.70;68.60;;;;;;5073961;28;20440;-77
2022/08/05 09:23:10;;;;;;;11.48;6.60;;;19.80;66.80;;;;;;5071553;28;20389;-77
2022/08/05 09:25:41;;;;;;;16.50;6.80;;;19.80;64.40;;;;;;5071719;28;20400;-76
2022/08/05 09:28:13;;;;;;;18.03;7.67;;;19.60;65.80;;;;;;5072363;28;20511;-78
2022/08/05 09:30:52;;;;;;;15.45;7.07;;;19.50;69.90;;;;;;5064780;28;20766;-76
2022/08/05 09:33:18;;;;;;;14.52;7.30;;;19.60;70.70;;;;;;5055236;28;20440;-76
2022/08/05 09:35:56;;;;;;;11.30;6.93;;;19.80;66.40;;;;;;5049636;28;20873;-76
2022/08/05 09:38:22;;;;;;;13.43;6.90;;;19.90;64.50;;;;;;5042873;28;20536;-76
2022/08/05 09:40:47;;;;;;;11.10;5.90;;;20.00;63.40;;;;;;5034461;28;20396;-75
2022/08/05 09:43:33;;;;;;;15.13;6.60;;;19.80;61.40;;;;;;5034556;28;20379;-75
2022/08/05 09:45:59;;;;;;;13.33;6.20;;;19.80;64.80;;;;;;5054075;28;20458;-76
2022/08/05 09:48:28;;;;;;;12.40;6.10;;;19.70;64.20;;;;;;5059700;28;20716;-77
2022/08/05 09:51:04;;;;;;;14.13;7.10;;;19.40;67.40;;;;;;5055247;28;20408;-76
2022/08/05 09:53:48;;;;;;;12.20;5.85;;;19.50;69.10;;;;;;5054664;28;20381;-74
2022/08/05 09:56:24;;;;;;;11.93;6.53;;;19.40;69.20;;;;;;5063101;28;20384;-77
2022/08/05 09:58:58;;;;;;;11.90;6.32;;;19.30;69.80;;;;;;5074974;28;20440;-76
2022/08/05 10:01:25;;;;;;;13.53;6.00;;;19.50;69.40;;;;;;5074817;28;20462;-76
2022/08/05 10:04:03;;;;;;;9.57;6.18;;;19.70;66.70;;;;;;5057942;28;20397;-77
2022/08/05 10:06:29;;;;;;;12.45;5.93;;;19.90;62.80;;;;;;5056367;28;20389;-76
2022/08/05 10:09:08;;;;;;;10.57;5.75;;;20.10;59.00;;;;;;5059828;28;20413;-76
2022/08/05 10:11:34;;;;;;;11.20;5.60;;;20.30;56.70;;;;;;5053951;28;20476;-77
2022/08/05 10:14:23;;;;;;;8.20;5.00;;;20.60;53.50;;;;;;5053714;28;20465;-77
2022/08/05 10:16:50;;;;;;;7.63;4.40;;;21.30;49.90;;;;;;5055062;28;20389;-78
2022/08/05 10:19:16;;;;;;;8.80;4.30;;;21.50;47.20;;;;;;5057217;28;20388;-77
2022/08/05 10:21:42;;;;;;;9.05;4.47;;;21.70;44.80;;;;;;5058779;28;20865;-77
2022/08/05 10:24:11;;;;;;;12.07;4.47;;;22.00;43.70;;;;;;5056832;28;20378;-77
2022/08/05 10:26:39;;;;;;;7.50;4.40;;;22.10;44.10;;;;;;5054566;28;20939;-76
2022/08/05 10:29:06;;;;;;;9.30;4.30;;;21.80;40.90;;;;;;5056180;28;20452;-77
2022/08/05 10:31:32;;;;;;;8.55;4.20;;;22.00;40.90;;;;;;5056115;28;20385;-78
2022/08/05 10:33:58;;;;;;;6.47;3.50;;;22.20;39.70;;;;;;5055012;28;20968;-77
2022/08/05 10:36:24;;;;;;;8.90;3.85;;;22.10;37.70;;;;;;5054430;28;20378;-76
2022/08/05 10:38:55;;;;;;;6.20;3.60;;;22.10;37.00;;;;;;5055939;28;20888;-77
2022/08/05 10:41:33;;;;;;;8.10;3.70;;;22.30;36.30;;;;;;5058081;28;20381;-78
2022/08/05 10:44:04;;;;;;;7.32;3.92;;;22.40;35.90;;;;;;5054660;28;20409;-77
2022/08/05 10:46:50;;;;;;;9.63;3.88;;;22.50;34.80;;;;;;5054319;28;20378;-77
2022/08/05 10:49:17;;;;;;;5.05;3.13;;;22.30;35.70;;;;;;5054019;28;20421;-76
2022/08/05 10:51:42;;;;;;;7.22;3.80;;;22.20;35.70;;;;;;5055534;28;20810;-77
2022/08/05 10:54:08;;;;;;;7.00;3.40;;;22.50;35.00;;;;;;5059306;28;20382;-77
2022/08/05 10:56:52;;;;;;;8.07;3.03;;;22.30;34.00;;;;;;5058746;28;20381;-77
2022/08/05 10:59:24;;;;;;;6.10;3.20;;;21.70;34.70;;;;;;5054866;28;20810;-76
2022/08/05 11:02:05;;;;;;;3.95;3.20;;;21.70;34.00;;;;;;5055637;28;20429;-76
2022/08/05 11:04:41;;;;;;;9.73;3.20;;;21.40;34.90;;;;;;5062316;28;20385;-79
2022/08/05 11:07:10;;;;;;;8.90;4.50;;;21.40;35.50;;;;;;5063615;28;20762;-76
2022/08/05 11:09:44;;;;;;;8.13;4.20;;;21.60;36.40;;;;;;5063105;28;20409;-78
2022/08/05 11:12:25;;;;;;;5.20;4.30;;;21.80;34.90;;;;;;5063746;28;20381;-77
2022/08/05 11:15:23;;;;;;;9.00;4.70;;;22.00;35.30;;;;;;5064304;28;20468;-77
2022/08/05 11:17:50;;;;;;;11.90;5.50;;;22.20;33.90;;;;;;5060180;28;20390;-77
2022/08/05 11:20:39;;;;;;;9.70;5.40;;;22.50;33.50;;;;;;5060188;28;20472;-77
2022/08/05 11:23:44;;;;;;;9.70;5.30;;;22.90;33.10;;;;;;5058548;28;20382;-77
2022/08/05 11:26:20;;;;;;;11.55;5.40;;;23.40;30.00;;;;;;5060076;28;20397;-77
2022/08/05 11:28:50;;;;;;;8.17;5.10;;;23.70;29.30;;;;;;5062968;28;20401;-78
2022/08/05 11:31:17;;;;;;;6.93;4.65;;;23.90;28.00;;;;;;5057949;28;20409;-77
2022/08/05 11:33:45;;;;;;;8.80;4.38;;;24.00;27.70;;;;;;5062295;28;20448;-77
2022/08/05 11:36:12;;;;;;;8.00;4.30;;;24.00;27.70;;;;;;5067793;28;20392;-77
2022/08/05 11:38:41;;;;;;;9.60;4.35;;;23.90;28.00;;;;;;5067800;28;20393;-77
2022/08/05 11:41:20;;;;;;;8.73;4.05;;;24.20;27.50;;;;;;5068330;28;20439;-78
2022/08/05 11:43:55;;;;;;;7.32;4.50;;;24.50;25.10;;;;;;5067857;28;20420;-78
2022/08/05 11:46:30;;;;;;;10.35;4.65;;;25.00;24.00;;;;;;5073938;28;20385;-77
2022/08/05 11:48:57;;;;;;;6.27;4.27;;;25.30;22.50;;;;;;5075344;28;20726;-75
2022/08/05 11:51:25;;;;;;;10.13;4.68;;;24.40;22.50;;;;;;5076313;28;20378;-77
2022/08/05 11:53:51;;;;;;;8.93;4.53;;;23.90;25.50;;;;;;5068312;28;20405;-76
2022/08/05 11:56:17;;;;;;;9.60;4.33;;;24.00;26.20;;;;;;5057090;28;20400;-77
2022/08/05 11:58:44;;;;;;;6.83;5.30;;;24.10;24.00;;;;;;5058665;28;20750;-77
2022/08/05 12:01:20;;;;;;;10.02;5.85;;;23.80;24.60;;;;;;5053273;28;20389;-77
2022/08/05 12:03:48;;;;;;;9.55;7.32;;;23.40;26.20;;;;;;5054095;28;20931;-77
2022/08/05 12:06:15;;;;;;;9.40;6.90;;;23.30;26.20;;;;;;5056350;28;20404;-77
2022/08/05 12:08:50;;;;;;;11.75;7.90;;;23.00;27.80;;;;;;5045940;28;20403;-78
2022/08/05 12:11:28;;;;;;;11.68;7.55;;;22.90;27.80;;;;;;5042017;28;20408;-78
2022/08/05 12:13:59;;;;;;;10.05;7.47;;;22.90;27.90;;;;;;5050871;28;20385;-78
2022/08/05 12:16:27;;;;;;;9.68;7.70;;;23.00;28.90;;;;;;5054374;28;20881;-75
2022/08/05 12:18:53;;;;;;;12.68;7.15;;;23.00;28.20;;;;;;5052851;28;20397;-77
2022/08/05 12:21:29;;;;;;;14.52;7.20;;;23.60;28.00;;;;;;5054392;28;20397;-77
2022/08/05 12:24:05;;;;;;;10.20;7.10;;;24.10;25.40;;;;;;5052876;28;20416;-78
2022/08/05 12:26:37;;;;;;;9.73;6.60;;;24.70;24.90;;;;;;5054137;28;20480;-76
2022/08/05 12:29:06;;;;;;;9.82;6.43;;;25.20;21.60;;;;;;5053953;28;20410;-77
2022/08/05 12:31:35;;;;;;;11.38;6.65;;;25.10;21.80;;;;;;5053977;28;20425;-78
2022/08/05 12:34:03;;;;;;;10.60;7.55;;;24.80;21.90;;;;;;5055143;28;20385;-79
2022/08/05 12:36:29;;;;;;;12.50;7.68;;;24.00;23.80;;;;;;5069963;28;20904;-77
2022/08/05 12:38:56;;;;;;;9.68;8.10;;;23.80;25.00;;;;;;5055829;28;20394;-78
2022/08/05 12:41:22;;;;;;;9.05;8.05;;;23.60;25.20;;;;;;5057517;28;20386;-78
2022/08/05 12:43:53;;;;;;;11.20;7.90;;;23.70;26.00;;;;;;5056245;28;20390;-78
2022/08/05 12:46:24;;;;;;;11.63;8.30;;;23.80;25.40;;;;;;5055911;28;20389;-78